LGA weather

La Guardia Airport
New York, New York, United States

Public forecast

Using degrees Fahrenheit for public forecast. Weather courtesy of forecast.io.

METAR (pilot weather report)

Retrieved 2018/02/24 11:14 UTC (37 minutes ago):

KLGA 241114Z 28007KT 10SM BKN016 BKN190 08/05 A3016 RMK AO2 T00780050

TAF (pilot weather forecast)

Retrieved 2018/02/24 06:52 UTC (5 hours ago):

TAF KLGA 240550Z 2406/2512 27011KT P6SM SCT015 BKN050 FM241000 28008KT P6SM SCT015 BKN050 FM241400 32007KT P6SM FEW015 OVC080 FM241800 36005KT P6SM OVC080 FM242100 03004KT 5SM -DZ BR BKN025 OVC050 FM250300 05009KT 4SM -DZ BR BKN012 OVC035 FM250700 08011KT 2SM -RA BR OVC008